Time;durP1;ratioP1;P1;durP2;ratioP2;P2;SDS_P1;SDS_P2;PMS_P1;PMS_P2;Temp;Humidity;BMP_temperature;BMP_pressure;BME280_temperature;BME280_humidity;BME280_pressure;Samples;Min_cycle;Max_cycle;Signal;HPM_P1;HPM_P2
2023/03/02 00:02:17;;;;;;;0.10;0.10;;;3.80;99.90;;;;;;5020539;28;20656;-80
2023/03/02 00:04:47;;;;;;;0.10;0.10;;;3.70;99.90;;;;;;5022593;28;20217;-80
2023/03/02 00:07:19;;;;;;;0.10;0.10;;;3.70;99.90;;;;;;5024064;28;20664;-80
2023/03/02 00:09:45;;;;;;;0.10;0.10;;;3.70;99.90;;;;;;5040165;28;20172;-80
2023/03/02 00:12:10;;;;;;;0.10;0.10;;;3.70;99.90;;;;;;5015680;28;20217;-80
2023/03/02 00:14:36;;;;;;;0.10;0.10;;;3.70;99.90;;;;;;5023138;28;20535;-80
2023/03/02 00:17:03;;;;;;;0.03;0.03;;;3.70;99.90;;;;;;5023950;28;20520;-80
2023/03/02 00:19:29;;;;;;;0.10;0.10;;;3.60;99.90;;;;;;5021988;28;20190;-80
2023/03/02 00:21:54;;;;;;;0.10;0.10;;;3.60;99.90;;;;;;5022685;28;20687;-80
2023/03/02 00:24:20;;;;;;;0.10;0.10;;;3.70;99.90;;;;;;5023945;28;20209;-79
2023/03/02 00:26:46;;;;;;;0.10;0.10;;;3.70;99.90;;;;;;5018442;28;20188;-80
2023/03/02 00:29:11;;;;;;;0.10;0.10;;;3.70;99.90;;;;;;5019751;28;20187;-80
2023/03/02 00:31:37;;;;;;;0.03;0.03;;;3.70;99.90;;;;;;5023183;28;20569;-79
2023/03/02 00:34:03;;;;;;;0.10;0.10;;;3.80;99.90;;;;;;5018572;28;20736;-80
2023/03/02 00:36:28;;;;;;;0.10;0.10;;;3.60;99.90;;;;;;5023901;28;20292;-79
2023/03/02 00:38:56;;;;;;;0.10;0.10;;;3.60;99.90;;;;;;5021126;28;21319;-80
2023/03/02 00:41:21;;;;;;;0.10;0.10;;;3.70;99.90;;;;;;5021328;28;20202;-79
2023/03/02 00:43:48;;;;;;;0.10;0.10;;;3.70;99.90;;;;;;5023452;28;20207;-79
2023/03/02 00:46:17;;;;;;;0.10;0.10;;;3.60;99.90;;;;;;5022652;28;20206;-79
2023/03/02 00:48:43;;;;;;;0.10;0.10;;;3.70;99.90;;;;;;5023077;28;20399;-80
2023/03/02 00:51:10;;;;;;;0.10;0.10;;;3.60;99.90;;;;;;5023599;28;20174;-80
2023/03/02 00:53:36;;;;;;;0.10;0.10;;;3.60;99.90;;;;;;5019412;28;20612;-80
2023/03/02 00:56:02;;;;;;;0.10;0.10;;;3.60;99.90;;;;;;5023443;28;20217;-79
2023/03/02 00:58:29;;;;;;;0.00;0.00;;;3.70;99.90;;;;;;5022834;28;20191;-79
2023/03/02 01:00:55;;;;;;;0.10;0.10;;;3.70;99.90;;;;;;5023833;28;20238;-79
2023/03/02 01:03:20;;;;;;;0.10;0.10;;;3.60;99.90;;;;;;5017755;28;20709;-80
2023/03/02 01:05:46;;;;;;;0.10;0.10;;;3.60;99.90;;;;;;5024771;28;20310;-80
2023/03/02 01:08:13;;;;;;;0.10;0.10;;;3.60;99.90;;;;;;5021397;28;20236;-80
2023/03/02 01:10:39;;;;;;;0.10;0.10;;;3.50;99.90;;;;;;5022424;28;20187;-79
2023/03/02 01:13:05;;;;;;;0.00;0.00;;;3.50;99.90;;;;;;5023852;28;20186;-80
2023/03/02 01:15:32;;;;;;;0.10;0.10;;;3.50;99.90;;;;;;5022821;28;20577;-80
2023/03/02 01:17:59;;;;;;;0.10;0.10;;;3.60;99.90;;;;;;5021275;28;20253;-80
2023/03/02 01:20:25;;;;;;;0.10;0.10;;;3.50;99.90;;;;;;5023231;28;20187;-80
2023/03/02 01:22:51;;;;;;;0.10;0.10;;;3.50;99.90;;;;;;5024546;28;20186;-79
2023/03/02 01:25:17;;;;;;;15.10;13.57;;;3.50;99.90;;;;;;5027760;28;20206;-80
2023/03/02 01:27:42;;;;;;;0.10;0.10;;;3.50;99.90;;;;;;5032552;28;20190;-80
2023/03/02 01:30:09;;;;;;;0.40;0.40;;;3.40;99.90;;;;;;5029313;28;20190;-80
2023/03/02 01:32:34;;;;;;;0.10;0.10;;;3.40;99.90;;;;;;5031283;28;20217;-79
2023/03/02 01:35:00;;;;;;;0.07;0.07;;;3.40;99.90;;;;;;5027875;28;20215;-80
2023/03/02 01:37:25;;;;;;;0.00;0.00;;;3.50;99.90;;;;;;5033109;28;20190;-79
2023/03/02 01:39:52;;;;;;;0.10;0.10;;;3.40;99.90;;;;;;5032173;28;20202;-80
2023/03/02 01:42:17;;;;;;;0.10;0.10;;;3.40;99.90;;;;;;5023997;28;21040;-80
2023/03/02 01:44:43;;;;;;;0.10;0.10;;;3.40;99.90;;;;;;5019395;28;20225;-79
2023/03/02 01:47:36;;;;;;;0.10;0.10;;;3.40;99.90;;;;;;5028741;28;20709;-80
2023/03/02 01:50:20;;;;;;;0.10;0.10;;;3.50;99.90;;;;;;5029505;28;20248;-80
2023/03/02 01:52:47;;;;;;;0.10;0.10;;;3.50;99.90;;;;;;5028148;28;20502;-79
2023/03/02 01:55:15;;;;;;;6.03;4.80;;;3.50;99.90;;;;;;5028495;28;20212;-79
2023/03/02 01:57:45;;;;;;;0.10;0.10;;;3.50;99.90;;;;;;5028064;28;20264;-79
2023/03/02 02:00:18;;;;;;;0.10;0.10;;;3.50;99.90;;;;;;5026938;28;20230;-79
2023/03/02 02:02:43;;;;;;;0.10;0.10;;;3.40;99.90;;;;;;5025708;28;20236;-80
2023/03/02 02:05:14;;;;;;;0.67;0.67;;;3.50;99.90;;;;;;5025296;28;20711;-79
2023/03/02 02:07:39;;;;;;;0.10;0.10;;;3.60;99.90;;;;;;5025754;28;20176;-80
2023/03/02 02:10:06;;;;;;;0.10;0.10;;;3.50;99.90;;;;;;5027758;28;20261;-80
2023/03/02 02:12:32;;;;;;;0.10;0.10;;;3.50;99.90;;;;;;5025581;28;21100;-79
2023/03/02 02:14:59;;;;;;;0.10;0.10;;;3.60;99.90;;;;;;5020182;28;20352;-79
2023/03/02 02:17:27;;;;;;;7.90;7.50;;;3.50;99.90;;;;;;5024485;28;20197;-79
2023/03/02 02:20:08;;;;;;;0.10;0.10;;;3.50;99.90;;;;;;5026932;28;20194;-79
2023/03/02 02:23:06;;;;;;;0.10;0.10;;;3.50;99.90;;;;;;5027975;28;20179;-80
2023/03/02 02:25:54;;;;;;;0.03;0.03;;;3.50;99.90;;;;;;5015174;28;20222;-80
2023/03/02 02:28:26;;;;;;;0.10;0.10;;;3.60;99.90;;;;;;5028217;28;20270;-79
2023/03/02 02:31:06;;;;;;;0.10;0.10;;;3.50;99.90;;;;;;5025094;28;20593;-79
2023/03/02 02:33:34;;;;;;;1.90;1.90;;;3.50;99.90;;;;;;5026157;28;20182;-80
2023/03/02 02:36:11;;;;;;;0.10;0.10;;;3.50;99.90;;;;;;5042249;28;20245;-79
2023/03/02 02:38:39;;;;;;;0.10;0.10;;;3.50;99.90;;;;;;5024021;28;20193;-80
2023/03/02 02:41:07;;;;;;;17.63;10.73;;;3.50;99.90;;;;;;5027747;28;20707;-80
2023/03/02 02:43:33;;;;;;;0.10;0.10;;;3.50;99.90;;;;;;5025172;28;20264;-80
2023/03/02 02:46:00;;;;;;;0.10;0.10;;;3.50;99.90;;;;;;5025708;28;20199;-80
2023/03/02 02:48:29;;;;;;;0.77;0.77;;;3.60;99.90;;;;;;5026012;28;20258;-80
2023/03/02 02:51:01;;;;;;;0.10;0.10;;;3.50;99.90;;;;;;5020491;28;20178;-80
2023/03/02 02:53:36;;;;;;;0.30;0.30;;;3.50;99.90;;;;;;5024842;28;20682;-80
2023/03/02 02:56:03;;;;;;;0.10;0.10;;;3.40;99.90;;;;;;5024871;28;20263;-80
2023/03/02 02:58:38;;;;;;;0.10;0.10;;;3.40;99.90;;;;;;5025009;28;20190;-80
2023/03/02 03:01:04;;;;;;;0.10;0.10;;;3.50;99.90;;;;;;5024446;28;20690;-80
2023/03/02 03:03:34;;;;;;;0.37;0.37;;;3.40;99.90;;;;;;5023856;28;20309;-80
2023/03/02 03:06:02;;;;;;;1.00;1.00;;;3.40;99.90;;;;;;5026491;28;21039;-80
2023/03/02 03:08:40;;;;;;;0.10;0.10;;;3.40;99.90;;;;;;5020601;28;20188;-80
2023/03/02 03:11:06;;;;;;;0.10;0.10;;;3.40;99.90;;;;;;5023641;28;20252;-80
2023/03/02 03:13:32;;;;;;;9.73;9.33;;;3.40;99.90;;;;;;5024376;28;20263;-80
2023/03/02 03:15:59;;;;;;;0.10;0.10;;;3.30;99.90;;;;;;5025222;28;20268;-79
2023/03/02 03:18:24;;;;;;;0.07;0.07;;;3.30;99.90;;;;;;5020114;28;20193;-80
2023/03/02 03:20:50;;;;;;;0.10;0.10;;;3.30;99.90;;;;;;5025984;28;20611;-80
2023/03/02 03:23:15;;;;;;;0.10;0.10;;;3.30;99.90;;;;;;5022862;28;20672;-80
2023/03/02 03:25:41;;;;;;;0.53;0.53;;;3.30;99.90;;;;;;5023961;28;20296;-80
2023/03/02 03:28:06;;;;;;;0.10;0.10;;;3.20;99.90;;;;;;5025445;28;20190;-80
2023/03/02 03:30:32;;;;;;;0.10;0.10;;;3.30;99.90;;;;;;5024883;28;20683;-80
2023/03/02 03:32:57;;;;;;;0.10;0.10;;;3.20;99.90;;;;;;5026295;28;20195;-80
2023/03/02 03:35:23;;;;;;;0.00;0.00;;;3.20;99.90;;;;;;5025977;28;21007;-80
2023/03/02 03:37:48;;;;;;;0.10;0.10;;;3.10;99.90;;;;;;5022045;28;20181;-80
2023/03/02 03:40:14;;;;;;;0.07;0.07;;;3.10;99.90;;;;;;5025295;28;20189;-80
2023/03/02 03:42:39;;;;;;;0.63;0.63;;;3.10;99.90;;;;;;5025861;28;20181;-80
2023/03/02 03:45:07;;;;;;;0.10;0.10;;;3.10;99.90;;;;;;5019970;28;20230;-80
2023/03/02 03:47:33;;;;;;;0.10;0.10;;;3.10;99.90;;;;;;5023339;28;20182;-80
2023/03/02 03:49:59;;;;;;;0.10;0.10;;;3.10;99.90;;;;;;5025385;28;20190;-81
2023/03/02 03:52:29;;;;;;;0.10;0.10;;;3.10;99.90;;;;;;5025492;28;20248;-80
2023/03/02 03:54:56;;;;;;;0.10;0.10;;;3.10;99.90;;;;;;5025820;28;20817;-80
2023/03/02 03:57:22;;;;;;;0.10;0.10;;;3.10;99.90;;;;;;5024142;28;20204;-80
2023/03/02 03:59:47;;;;;;;0.00;0.00;;;3.10;99.90;;;;;;5019385;28;20794;-80
2023/03/02 04:02:13;;;;;;;0.10;0.10;;;3.10;99.90;;;;;;5040302;28;20218;-80
2023/03/02 04:04:38;;;;;;;0.10;0.10;;;3.00;99.90;;;;;;5022382;28;20683;-80
2023/03/02 04:07:04;;;;;;;0.10;0.10;;;3.00;99.90;;;;;;5021264;28;20281;-80
2023/03/02 04:09:32;;;;;;;0.00;0.00;;;3.00;99.90;;;;;;5020535;28;20191;-80
2023/03/02 04:11:58;;;;;;;0.07;0.07;;;3.00;99.90;;;;;;5019364;28;20186;-81
2023/03/02 04:14:24;;;;;;;0.10;0.10;;;2.90;99.90;;;;;;5022984;28;20190;-79
2023/03/02 04:16:51;;;;;;;0.10;0.10;;;2.90;99.90;;;;;;5023699;28;20197;-80
2023/03/02 04:19:16;;;;;;;0.10;0.10;;;2.90;99.90;;;;;;5017107;28;20194;-80
2023/03/02 04:21:44;;;;;;;0.10;0.10;;;2.80;99.90;;;;;;5023978;28;20424;-80
2023/03/02 04:24:10;;;;;;;0.10;0.10;;;2.80;99.90;;;;;;5018749;28;20214;-80
2023/03/02 04:26:38;;;;;;;0.10;0.10;;;2.80;99.90;;;;;;5022527;28;20213;-79
2023/03/02 04:29:04;;;;;;;0.10;0.10;;;2.70;99.90;;;;;;5023121;28;20190;-80
2023/03/02 04:31:30;;;;;;;0.10;0.10;;;2.70;99.90;;;;;;5023317;28;20296;-80
2023/03/02 04:33:57;;;;;;;0.00;0.00;;;2.70;99.90;;;;;;5021128;28;20561;-80
2023/03/02 04:36:22;;;;;;;0.10;0.10;;;2.70;99.90;;;;;;5022397;28;20221;-80
2023/03/02 04:38:49;;;;;;;0.10;0.10;;;2.70;99.90;;;;;;5018068;28;20205;-80
2023/03/02 04:41:15;;;;;;;0.10;0.10;;;2.60;99.90;;;;;;5040527;28;20281;-81
2023/03/02 04:43:41;;;;;;;0.00;0.00;;;2.60;99.90;;;;;;5021595;28;20835;-80
2023/03/02 04:46:06;;;;;;;0.10;0.10;;;2.60;99.90;;;;;;5020769;28;20234;-80
2023/03/02 04:48:32;;;;;;;0.10;0.10;;;2.60;99.90;;;;;;5023689;28;20186;-80
2023/03/02 04:50:57;;;;;;;0.10;0.10;;;2.60;99.90;;;;;;5024224;28;20257;-80
2023/03/02 04:53:23;;;;;;;0.10;0.10;;;2.50;99.90;;;;;;5015626;28;20205;-81
2023/03/02 04:55:49;;;;;;;0.10;0.10;;;2.50;99.90;;;;;;5020990;28;20198;-81
2023/03/02 04:58:14;;;;;;;0.07;0.07;;;2.50;99.90;;;;;;5024330;28;20565;-80
2023/03/02 05:00:40;;;;;;;0.10;0.10;;;2.40;99.90;;;;;;5025233;28;20205;-80
2023/03/02 05:03:06;;;;;;;0.10;0.10;;;2.40;99.90;;;;;;5015877;28;20196;-80
2023/03/02 05:05:32;;;;;;;0.10;0.10;;;2.30;99.90;;;;;;5027931;28;20229;-79
2023/03/02 05:07:58;;;;;;;0.03;0.03;;;2.30;99.90;;;;;;5022199;28;20213;-80
2023/03/02 05:10:25;;;;;;;0.10;0.10;;;2.30;99.90;;;;;;5023958;28;20201;-80
2023/03/02 05:12:56;;;;;;;0.10;0.10;;;2.30;99.90;;;;;;5024003;28;20189;-80
2023/03/02 05:15:50;;;;;;;0.10;0.10;;;2.30;99.90;;;;;;5019990;28;20204;-80
2023/03/02 05:18:16;;;;;;;0.10;0.10;;;2.30;99.90;;;;;;5026155;28;20189;-80
2023/03/02 05:20:41;;;;;;;0.10;0.10;;;2.30;99.90;;;;;;5021241;28;20240;-80
2023/03/02 05:23:09;;;;;;;0.10;0.10;;;2.40;99.90;;;;;;5022281;28;20735;-80
2023/03/02 05:25:36;;;;;;;1.90;1.90;;;2.30;99.90;;;;;;5024714;28;20221;-79
2023/03/02 05:28:03;;;;;;;0.07;0.07;;;2.20;99.90;;;;;;5026031;28;20186;-80
2023/03/02 05:30:31;;;;;;;0.10;0.10;;;2.20;99.90;;;;;;5026376;28;20282;-80
2023/03/02 05:32:57;;;;;;;0.10;0.10;;;2.20;99.90;;;;;;5027282;28;20165;-81
2023/03/02 05:35:23;;;;;;;0.10;0.10;;;2.20;99.90;;;;;;5024510;28;20768;-79
2023/03/02 05:37:49;;;;;;;0.10;0.10;;;2.20;99.90;;;;;;5021482;28;20189;-79
2023/03/02 05:40:18;;;;;;;0.10;0.10;;;2.20;99.90;;;;;;5027141;28;20234;-81
2023/03/02 05:42:44;;;;;;;0.10;0.10;;;2.20;99.90;;;;;;5027232;28;20224;-80
2023/03/02 05:45:29;;;;;;;0.30;0.30;;;2.20;99.90;;;;;;5026008;28;20636;-79
2023/03/02 05:47:55;;;;;;;0.10;0.10;;;2.10;99.90;;;;;;5024460;28;20212;-80
2023/03/02 05:50:21;;;;;;;0.10;0.10;;;2.10;99.90;;;;;;5021222;28;20209;-80
2023/03/02 05:52:47;;;;;;;0.10;0.10;;;2.10;99.90;;;;;;5026089;28;20717;-79
2023/03/02 05:55:14;;;;;;;0.10;0.10;;;2.10;99.90;;;;;;5021387;28;20695;-80
2023/03/02 05:57:39;;;;;;;0.10;0.10;;;2.10;99.90;;;;;;5026664;28;20199;-80
2023/03/02 06:00:08;;;;;;;0.10;0.10;;;2.20;99.90;;;;;;5018960;28;20199;-79
2023/03/02 06:02:34;;;;;;;0.10;0.10;;;2.20;99.90;;;;;;5026303;28;20191;-79
2023/03/02 06:05:00;;;;;;;0.43;0.43;;;2.30;99.90;;;;;;5022093;28;20214;-78
2023/03/02 06:07:26;;;;;;;0.10;0.10;;;2.30;99.90;;;;;;5024641;28;20731;-79
2023/03/02 06:09:51;;;;;;;0.10;0.10;;;2.40;99.90;;;;;;5022570;28;20235;-79
2023/03/02 06:12:17;;;;;;;0.10;0.10;;;2.40;99.90;;;;;;5024077;28;20860;-79
2023/03/02 06:14:43;;;;;;;0.10;0.10;;;2.50;99.90;;;;;;5024301;28;20211;-80
2023/03/02 06:17:09;;;;;;;0.10;0.10;;;2.60;99.90;;;;;;5022113;28;20652;-79
2023/03/02 06:19:34;;;;;;;0.10;0.10;;;2.50;99.90;;;;;;5020145;28;20185;-79
2023/03/02 06:22:01;;;;;;;0.10;0.10;;;2.50;99.90;;;;;;5022471;28;20244;-79
2023/03/02 06:24:26;;;;;;;0.23;0.23;;;2.60;99.90;;;;;;5022236;28;20671;-81
2023/03/02 06:26:53;;;;;;;0.10;0.10;;;2.60;99.90;;;;;;5021553;28;20197;-81
2023/03/02 06:29:19;;;;;;;0.70;0.70;;;2.60;99.90;;;;;;5024936;28;20174;-81
2023/03/02 06:31:45;;;;;;;0.10;0.10;;;2.80;99.90;;;;;;5017277;28;20193;-80
2023/03/02 06:34:10;;;;;;;0.10;0.10;;;2.80;99.90;;;;;;5022430;28;20186;-81
2023/03/02 06:36:37;;;;;;;0.10;0.10;;;2.90;99.90;;;;;;5026244;28;20214;-81
2023/03/02 06:39:07;;;;;;;0.10;0.10;;;3.00;99.90;;;;;;5028853;28;20188;-80
2023/03/02 06:41:32;;;;;;;0.10;0.10;;;3.10;99.90;;;;;;5027862;28;20175;-80
2023/03/02 06:43:59;;;;;;;0.10;0.10;;;3.20;99.90;;;;;;5026020;28;20211;-80
2023/03/02 06:46:25;;;;;;;0.10;0.10;;;3.30;99.90;;;;;;5027299;28;20233;-80
2023/03/02 06:48:50;;;;;;;0.10;0.10;;;3.40;99.90;;;;;;5022477;28;20656;-80
2023/03/02 06:51:16;;;;;;;0.10;0.10;;;3.60;99.90;;;;;;5025040;28;20245;-80
2023/03/02 06:53:42;;;;;;;0.10;0.10;;;3.60;99.90;;;;;;5022613;28;20790;-79
2023/03/02 06:56:08;;;;;;;0.10;0.10;;;3.70;99.90;;;;;;5023090;28;20206;-80
2023/03/02 06:58:35;;;;;;;0.10;0.10;;;3.80;99.90;;;;;;5021649;28;20186;-79
2023/03/02 07:01:00;;;;;;;0.10;0.10;;;3.90;99.90;;;;;;5019998;28;20209;-79
2023/03/02 07:03:26;;;;;;;0.30;0.30;;;4.00;99.90;;;;;;5027112;28;20679;-80
2023/03/02 07:05:51;;;;;;;0.07;0.07;;;4.10;99.90;;;;;;5027656;28;21176;-79
2023/03/02 07:08:17;;;;;;;0.00;0.00;;;4.20;99.90;;;;;;5025785;28;20210;-79
2023/03/02 07:10:43;;;;;;;0.10;0.10;;;4.40;99.90;;;;;;5027129;28;20189;-80
2023/03/02 07:13:08;;;;;;;0.10;0.10;;;4.40;99.90;;;;;;5024399;28;20201;-80
2023/03/02 07:15:33;;;;;;;0.10;0.10;;;4.50;99.90;;;;;;5011441;28;20217;-80
2023/03/02 07:17:59;;;;;;;0.10;0.10;;;4.60;99.90;;;;;;5013397;28;20298;-80
2023/03/02 07:20:24;;;;;;;0.03;0.03;;;4.70;99.90;;;;;;5008960;28;20195;-80
2023/03/02 07:22:50;;;;;;;0.03;0.03;;;4.90;99.90;;;;;;5015118;28;20252;-80
2023/03/02 07:25:16;;;;;;;0.00;0.00;;;5.00;99.90;;;;;;5015777;28;20225;-81
2023/03/02 07:27:41;;;;;;;0.23;0.23;;;5.10;99.90;;;;;;5014160;28;20190;-80
2023/03/02 07:30:08;;;;;;;0.10;0.10;;;5.20;99.90;;;;;;5018537;28;20279;-80
2023/03/02 07:32:33;;;;;;;0.10;0.10;;;5.40;99.90;;;;;;5019682;28;20271;-79
2023/03/02 07:34:59;;;;;;;0.10;0.10;;;5.50;99.90;;;;;;5021822;28;20229;-80
2023/03/02 07:37:25;;;;;;;0.10;0.10;;;5.70;99.90;;;;;;5022434;28;20549;-80
2023/03/02 07:39:50;;;;;;;0.10;0.10;;;5.70;99.90;;;;;;5023319;28;20206;-79
2023/03/02 07:42:16;;;;;;;0.10;0.10;;;5.60;99.90;;;;;;5023659;28;20194;-80
2023/03/02 07:44:42;;;;;;;0.10;0.10;;;5.80;99.90;;;;;;5016860;28;20204;-79
2023/03/02 07:47:08;;;;;;;0.10;0.10;;;5.90;99.90;;;;;;5020678;28;20203;-80
2023/03/02 07:49:36;;;;;;;0.10;0.10;;;5.90;99.90;;;;;;5016260;28;20192;-80
2023/03/02 07:52:03;;;;;;;0.20;0.20;;;5.80;99.90;;;;;;5018762;28;20184;-80
2023/03/02 07:54:29;;;;;;;0.10;0.10;;;5.90;99.90;;;;;;5011105;28;20187;-80
2023/03/02 07:56:56;;;;;;;0.07;0.07;;;6.20;99.90;;;;;;5019861;28;21197;-80
2023/03/02 07:59:22;;;;;;;0.10;0.10;;;6.30;99.90;;;;;;5019541;28;20196;-80
2023/03/02 08:01:48;;;;;;;0.10;0.10;;;6.30;99.90;;;;;;5016482;28;20747;-80
2023/03/02 08:04:13;;;;;;;0.60;0.60;;;6.30;99.90;;;;;;5018323;28;20304;-80
2023/03/02 08:06:40;;;;;;;0.00;0.00;;;6.60;99.90;;;;;;5024206;28;20322;-81
2023/03/02 08:09:06;;;;;;;0.07;0.07;;;6.60;99.90;;;;;;5019353;28;20270;-80
2023/03/02 08:11:31;;;;;;;0.10;0.10;;;6.60;99.90;;;;;;5024980;28;20184;-82
2023/03/02 08:14:01;;;;;;;0.10;0.10;;;7.00;99.90;;;;;;5015357;28;20556;-81
2023/03/02 08:16:27;;;;;;;0.07;0.07;;;7.10;99.90;;;;;;5020154;28;20208;-80
2023/03/02 08:18:52;;;;;;;0.10;0.10;;;7.00;99.90;;;;;;5019054;28;20192;-80
2023/03/02 08:21:20;;;;;;;0.10;0.10;;;7.10;99.90;;;;;;5014526;28;20599;-80
2023/03/02 08:23:46;;;;;;;0.10;0.10;;;7.20;99.90;;;;;;5024323;28;20216;-80
2023/03/02 08:26:12;;;;;;;0.10;0.10;;;7.40;99.90;;;;;;5022123;28;20202;-80
2023/03/02 08:28:38;;;;;;;0.07;0.07;;;7.40;99.90;;;;;;5019895;28;20184;-81
2023/03/02 08:31:06;;;;;;;0.10;0.10;;;7.50;99.90;;;;;;5020518;28;20184;-80
2023/03/02 08:33:32;;;;;;;0.07;0.07;;;7.60;99.90;;;;;;5021261;28;20215;-81
2023/03/02 08:36:02;;;;;;;0.10;0.10;;;7.60;99.90;;;;;;5027762;28;20257;-80
2023/03/02 08:38:28;;;;;;;0.20;0.20;;;7.60;99.90;;;;;;5026919;28;20193;-81
2023/03/02 08:40:54;;;;;;;0.10;0.10;;;7.80;99.90;;;;;;5022398;28;20193;-81
2023/03/02 08:43:22;;;;;;;0.00;0.00;;;7.70;99.90;;;;;;5025384;28;20286;-80
2023/03/02 08:45:52;;;;;;;0.10;0.10;;;7.70;99.90;;;;;;5026669;28;20208;-80
2023/03/02 08:48:22;;;;;;;0.00;0.00;;;7.70;99.90;;;;;;5025650;28;20193;-81
2023/03/02 08:51:00;;;;;;;0.10;0.10;;;7.90;99.90;;;;;;5028299;28;20196;-81
2023/03/02 08:53:28;;;;;;;0.10;0.10;;;8.00;99.90;;;;;;5026814;28;20200;-80
2023/03/02 08:55:53;;;;;;;0.10;0.10;;;8.10;99.90;;;;;;5024622;28;21437;-80
2023/03/02 08:58:19;;;;;;;2.60;2.50;;;7.90;99.90;;;;;;5022548;28;20276;-80
2023/03/02 09:00:45;;;;;;;0.10;0.10;;;7.90;99.90;;;;;;5025699;28;20229;-81
2023/03/02 09:03:10;;;;;;;0.10;0.10;;;8.10;99.90;;;;;;5023282;28;20225;-80
2023/03/02 09:05:36;;;;;;;0.10;0.10;;;8.10;99.90;;;;;;5028580;28;20202;-81
2023/03/02 09:08:02;;;;;;;0.10;0.10;;;8.30;99.90;;;;;;5019709;28;20516;-80
2023/03/02 09:10:28;;;;;;;0.10;0.10;;;8.10;99.90;;;;;;5021272;28;20515;-80
2023/03/02 09:12:53;;;;;;;0.07;0.07;;;8.50;99.90;;;;;;5028772;28;20175;-80
2023/03/02 09:15:19;;;;;;;0.10;0.10;;;8.80;99.90;;;;;;5025726;28;20205;-80
2023/03/02 09:17:44;;;;;;;0.10;0.10;;;8.90;99.90;;;;;;5027710;28;20493;-81
2023/03/02 09:20:10;;;;;;;0.10;0.10;;;8.90;99.90;;;;;;5026633;28;20186;-80
2023/03/02 09:22:36;;;;;;;0.10;0.10;;;9.20;99.90;;;;;;5024122;28;20194;-81
2023/03/02 09:25:05;;;;;;;0.10;0.10;;;9.10;99.90;;;;;;5026086;28;20206;-80
2023/03/02 09:27:31;;;;;;;0.10;0.10;;;9.00;99.90;;;;;;5027774;28;20260;-80
2023/03/02 09:29:57;;;;;;;0.10;0.10;;;8.30;99.90;;;;;;5021001;28;20262;-80
2023/03/02 09:32:23;;;;;;;0.37;0.37;;;8.60;99.90;;;;;;5022740;28;20181;-81
2023/03/02 09:34:49;;;;;;;0.10;0.10;;;8.90;99.90;;;;;;5025215;28;20778;-81
2023/03/02 09:37:14;;;;;;;0.10;0.10;;;9.00;99.90;;;;;;5027191;28;20178;-80
2023/03/02 09:39:40;;;;;;;0.10;0.10;;;9.10;99.90;;;;;;5023687;28;20547;-80
2023/03/02 09:42:31;;;;;;;0.10;0.10;;;8.80;99.90;;;;;;5020406;28;20189;-80
2023/03/02 09:45:12;;;;;;;0.10;0.10;;;8.80;99.90;;;;;;5023625;28;20289;-81
2023/03/02 09:48:12;;;;;;;0.10;0.10;;;8.60;99.90;;;;;;5025288;28;20261;-80
2023/03/02 09:51:03;;;;;;;0.10;0.10;;;8.30;99.90;;;;;;5025028;28;20171;-81
2023/03/02 09:53:57;;;;;;;0.10;0.10;;;8.80;99.90;;;;;;5027111;28;20200;-80
2023/03/02 09:56:23;;;;;;;0.10;0.10;;;9.10;99.90;;;;;;5042152;28;20210;-80
2023/03/02 09:59:12;;;;;;;0.10;0.10;;;9.10;99.90;;;;;;5042342;28;20218;-80
2023/03/02 10:01:45;;;;;;;0.40;0.40;;;9.40;99.90;;;;;;5023410;28;20241;-82
2023/03/02 10:04:24;;;;;;;0.10;0.10;;;9.10;99.90;;;;;;5023364;28;20242;-81
2023/03/02 10:07:15;;;;;;;0.10;0.10;;;9.20;99.90;;;;;;5026435;28;20273;-81
2023/03/02 10:09:42;;;;;;;0.10;0.10;;;9.20;99.90;;;;;;5022507;28;20194;-81
2023/03/02 10:12:38;;;;;;;0.57;0.57;;;9.30;99.90;;;;;;5021739;28;20217;-81
2023/03/02 10:15:07;;;;;;;0.13;0.13;;;9.20;99.90;;;;;;5025054;28;20206;-81
2023/03/02 10:18:10;;;;;;;0.10;0.10;;;9.10;99.90;;;;;;5025945;28;20265;-81
2023/03/02 10:21:00;;;;;;;0.10;0.10;;;9.30;99.90;;;;;;5006054;28;20255;-81
2023/03/02 10:23:33;;;;;;;0.10;0.10;;;9.80;99.90;;;;;;5027584;28;20202;-81
2023/03/02 10:26:23;;;;;;;0.10;0.10;;;9.50;99.90;;;;;;5024476;28;20310;-80
2023/03/02 10:29:13;;;;;;;0.10;0.10;;;9.50;99.90;;;;;;5018776;28;20225;-81
2023/03/02 10:31:40;;;;;;;0.10;0.10;;;9.60;99.90;;;;;;5026304;28;20351;-80
2023/03/02 10:34:09;;;;;;;0.10;0.10;;;9.80;99.90;;;;;;5020029;28;20265;-81
2023/03/02 10:36:37;;;;;;;0.30;0.30;;;9.80;99.90;;;;;;5026956;28;20209;-80
2023/03/02 10:39:11;;;;;;;0.10;0.10;;;9.90;99.90;;;;;;5024764;28;20690;-81
2023/03/02 10:41:53;;;;;;;0.10;0.10;;;10.00;99.90;;;;;;5025262;28;20276;-81
2023/03/02 10:44:36;;;;;;;0.10;0.10;;;9.80;99.90;;;;;;5025018;28;20560;-80
2023/03/02 10:47:03;;;;;;;0.10;0.10;;;10.00;99.90;;;;;;5024703;28;20189;-81
2023/03/02 10:49:30;;;;;;;0.10;0.10;;;10.50;99.90;;;;;;5027138;28;20191;-81
2023/03/02 10:52:02;;;;;;;0.10;0.10;;;10.30;99.90;;;;;;5026207;28;20190;-81
2023/03/02 10:54:30;;;;;;;15.90;14.97;;;10.30;99.90;;;;;;5025158;28;20186;-81
2023/03/02 10:57:02;;;;;;;0.10;0.10;;;10.20;99.90;;;;;;5023346;28;20221;-81
2023/03/02 10:59:42;;;;;;;0.10;0.10;;;10.80;99.90;;;;;;5020952;28;20182;-81
2023/03/02 11:02:22;;;;;;;0.23;0.23;;;10.90;99.90;;;;;;5025362;28;20189;-81
2023/03/02 11:05:06;;;;;;;0.10;0.10;;;10.40;99.90;;;;;;5023973;28;20218;-81
2023/03/02 11:07:32;;;;;;;0.10;0.10;;;10.50;99.90;;;;;;5018904;28;20189;-81
2023/03/02 11:10:04;;;;;;;0.10;0.10;;;10.90;99.90;;;;;;5020517;28;20182;-81
2023/03/02 11:12:31;;;;;;;0.10;0.10;;;11.00;99.90;;;;;;5024766;28;20186;-81
2023/03/02 11:15:23;;;;;;;0.10;0.10;;;11.30;99.90;;;;;;5024056;28;20225;-81
2023/03/02 11:18:11;;;;;;;0.10;0.10;;;11.40;99.90;;;;;;5024783;28;20248;-81
2023/03/02 11:20:51;;;;;;;0.03;0.03;;;11.10;99.90;;;;;;5024660;28;20216;-81
2023/03/02 11:23:24;;;;;;;0.10;0.10;;;11.00;99.90;;;;;;5023623;28;20183;-81
2023/03/02 11:25:53;;;;;;;0.10;0.10;;;11.10;99.90;;;;;;5024257;28;20195;-80
2023/03/02 11:28:28;;;;;;;0.10;0.10;;;11.00;99.90;;;;;;5019295;28;20661;-81
2023/03/02 11:30:56;;;;;;;0.20;0.20;;;11.20;99.90;;;;;;5023101;28;20205;-81
2023/03/02 11:33:38;;;;;;;0.20;0.20;;;11.50;99.90;;;;;;5024980;28;20213;-81
2023/03/02 11:36:35;;;;;;;0.10;0.10;;;10.90;99.90;;;;;;5022824;28;20253;-81
2023/03/02 11:39:08;;;;;;;0.10;0.10;;;11.10;99.90;;;;;;5020478;28;20348;-81
2023/03/02 11:41:35;;;;;;;0.10;0.10;;;11.60;99.90;;;;;;5030362;28;21364;-81
2023/03/02 11:44:16;;;;;;;0.10;0.10;;;11.60;99.90;;;;;;5026059;28;20198;-81
2023/03/02 11:46:57;;;;;;;0.10;0.10;;;11.40;99.90;;;;;;5026057;28;20630;-81
2023/03/02 11:49:34;;;;;;;0.10;0.10;;;11.40;99.90;;;;;;5028188;28;20248;-81
2023/03/02 11:52:01;;;;;;;0.10;0.10;;;11.20;99.90;;;;;;5025396;28;20269;-81
2023/03/02 11:54:52;;;;;;;0.10;0.10;;;11.30;99.90;;;;;;5026441;28;20240;-80
2023/03/02 11:57:35;;;;;;;0.10;0.10;;;11.20;99.90;;;;;;5027002;28;20195;-81
2023/03/02 12:00:04;;;;;;;0.10;0.10;;;11.50;99.90;;;;;;5027830;28;20529;-81
2023/03/02 12:02:29;;;;;;;0.10;0.10;;;12.00;99.90;;;;;;5028310;28;20548;-82
2023/03/02 12:05:22;;;;;;;0.10;0.10;;;12.00;99.90;;;;;;5028969;28;20296;-81
2023/03/02 12:08:06;;;;;;;4.33;1.40;;;11.80;99.90;;;;;;5026511;28;20190;-81
2023/03/02 12:10:37;;;;;;;0.10;0.10;;;11.80;99.90;;;;;;5027493;28;20189;-82
2023/03/02 12:13:20;;;;;;;0.10;0.10;;;11.90;99.90;;;;;;5026093;28;20189;-81
2023/03/02 12:15:49;;;;;;;0.10;0.10;;;12.20;99.90;;;;;;5024545;28;20231;-81
2023/03/02 12:18:42;;;;;;;0.10;0.10;;;12.20;99.90;;;;;;5026520;28;20189;-81
2023/03/02 12:21:22;;;;;;;0.10;0.10;;;12.00;99.90;;;;;;5007799;28;20916;-81
2023/03/02 12:23:48;;;;;;;0.10;0.10;;;12.10;99.90;;;;;;5021258;28;20204;-81
2023/03/02 12:26:19;;;;;;;0.10;0.10;;;12.20;99.90;;;;;;5028694;28;20201;-81
2023/03/02 12:28:56;;;;;;;0.10;0.10;;;12.10;99.90;;;;;;5026164;28;20183;-81
2023/03/02 12:31:22;;;;;;;0.00;0.00;;;12.40;99.90;;;;;;5028716;28;20178;-81
2023/03/02 12:33:50;;;;;;;0.10;0.10;;;12.70;99.90;;;;;;5028183;28;20537;-81
2023/03/02 12:36:28;;;;;;;0.10;0.10;;;12.70;99.90;;;;;;5024548;28;20336;-81
2023/03/02 12:39:03;;;;;;;0.10;0.10;;;12.60;99.90;;;;;;5025524;28;20547;-81
2023/03/02 12:41:44;;;;;;;0.10;0.10;;;12.30;99.90;;;;;;5027083;28;20206;-81
2023/03/02 12:44:53;;;;;;;0.10;0.10;;;12.40;99.90;;;;;;5026686;28;20299;-81
2023/03/02 12:47:25;;;;;;;0.10;0.10;;;12.60;99.90;;;;;;5026075;28;20201;-81
2023/03/02 12:49:56;;;;;;;0.10;0.10;;;12.60;99.90;;;;;;5026061;28;20191;-81
2023/03/02 12:52:27;;;;;;;0.10;0.10;;;12.60;99.90;;;;;;5024940;28;20682;-81
2023/03/02 12:55:16;;;;;;;0.10;0.10;;;12.80;99.90;;;;;;5024977;28;20210;-81
2023/03/02 12:57:50;;;;;;;0.10;0.10;;;12.60;99.90;;;;;;5024770;28;20195;-81
2023/03/02 13:00:19;;;;;;;0.10;0.10;;;12.60;99.90;;;;;;5026231;28;20198;-81
2023/03/02 13:02:51;;;;;;;0.10;0.10;;;12.60;99.90;;;;;;5022732;28;20194;-80
2023/03/02 13:05:24;;;;;;;0.10;0.10;;;13.10;99.90;;;;;;5021764;28;20229;-80
2023/03/02 13:08:03;;;;;;;4.33;2.17;;;12.90;99.90;;;;;;5023317;28;20526;-81
2023/03/02 13:11:01;;;;;;;0.10;0.10;;;13.00;99.90;;;;;;5018659;28;20664;-81